Time;durP1;ratioP1;P1;durP2;ratioP2;P2;SDS_P1;SDS_P2;PMS_P1;PMS_P2;Temp;Humidity;BMP_temperature;BMP_pressure;BME280_temperature;BME280_humidity;BME280_pressure;Samples;Min_cycle;Max_cycle;Signal;HPM_P1;HPM_P2
2022/02/18 00:01:53;;;;;;;21.93;4.20;;;;;;;6.13;67.03;95431.69;4997895;28;20318;-78
2022/02/18 00:04:18;;;;;;;17.50;3.57;;;;;;;6.13;66.73;95414.44;5014845;28;20668;-77
2022/02/18 00:06:44;;;;;;;18.73;3.77;;;;;;;6.14;66.92;95415.28;5015141;28;20187;-78
2022/02/18 00:09:09;;;;;;;21.87;4.97;;;;;;;6.11;67.35;95410.38;4998394;28;20194;-78
2022/02/18 00:11:34;;;;;;;13.73;3.60;;;;;;;6.10;67.91;95408.75;5015065;28;20206;-78
2022/02/18 00:13:59;;;;;;;20.00;4.10;;;;;;;6.17;67.17;95413.25;5014821;28;20571;-78
2022/02/18 00:16:25;;;;;;;15.80;3.83;;;;;;;6.21;66.93;95398.38;5013550;28;20186;-78
2022/02/18 00:18:50;;;;;;;19.30;3.57;;;;;;;6.21;66.73;95411.25;5015229;28;20217;-78
2022/02/18 00:21:15;;;;;;;18.27;3.83;;;;;;;6.24;66.85;95393.75;5014746;28;20219;-78
2022/02/18 00:23:41;;;;;;;29.33;5.10;;;;;;;6.25;66.95;95407.47;5015500;28;20183;-78
2022/02/18 00:26:06;;;;;;;21.63;3.97;;;;;;;6.23;66.40;95391.31;5016009;28;20191;-78
2022/02/18 00:28:31;;;;;;;21.87;4.17;;;;;;;6.30;66.45;95386.50;5015053;28;20209;-78
2022/02/18 00:30:57;;;;;;;16.73;3.90;;;;;;;6.31;66.02;95382.97;5014541;28;20195;-78
2022/02/18 00:33:23;;;;;;;20.53;3.60;;;;;;;6.24;66.98;95388.59;5014551;28;20226;-78
2022/02/18 00:35:48;;;;;;;16.67;3.50;;;;;;;6.24;66.59;95387.78;4998143;28;20175;-78
2022/02/18 00:38:14;;;;;;;20.73;3.60;;;;;;;6.26;66.79;95385.91;5015501;28;20184;-78
2022/02/18 00:40:40;;;;;;;18.27;4.43;;;;;;;6.24;67.28;95387.78;5015282;28;20203;-78
2022/02/18 00:43:05;;;;;;;18.60;3.90;;;;;;;6.28;66.67;95396.13;4997724;28;20217;-78
2022/02/18 00:45:31;;;;;;;16.77;4.00;;;;;;;6.34;66.68;95391.25;5014459;28;20700;-78
2022/02/18 00:47:56;;;;;;;18.67;4.00;;;;;;;6.33;66.29;95389.63;5014899;28;20310;-78
2022/02/18 00:50:22;;;;;;;17.17;4.87;;;;;;;6.27;66.40;95389.28;5015394;28;20186;-78
2022/02/18 00:52:47;;;;;;;17.93;3.40;;;;;;;6.30;66.20;95387.31;4997406;28;20175;-78
2022/02/18 00:55:13;;;;;;;16.67;3.80;;;;;;;6.33;66.52;95389.63;5014166;28;20193;-78
2022/02/18 00:57:39;;;;;;;20.87;4.00;;;;;;;6.30;66.62;95376.97;5014588;28;20171;-78
2022/02/18 01:00:06;;;;;;;21.13;3.60;;;;;;;6.30;66.43;95379.56;5014735;28;20191;-78
2022/02/18 01:02:32;;;;;;;15.07;3.67;;;;;;;6.27;66.39;95384.13;4997770;28;20207;-78
2022/02/18 01:04:57;;;;;;;17.10;3.23;;;;;;;6.37;66.92;95401.34;4987880;28;20665;-78
2022/02/18 01:07:25;;;;;;;17.77;3.70;;;;;;;6.33;66.40;95396.53;5003272;28;20217;-78
2022/02/18 01:09:52;;;;;;;13.13;4.47;;;;;;;6.30;66.63;95404.53;5014742;28;20202;-78
2022/02/18 01:12:18;;;;;;;12.93;3.20;;;;;;;6.30;66.53;95405.34;5013199;28;20202;-78
2022/02/18 01:14:43;;;;;;;14.47;3.67;;;;;;;6.34;66.64;95414.47;5014228;28;20187;-78
2022/02/18 01:17:08;;;;;;;16.80;3.50;;;;;;;6.33;66.98;95399.94;5014769;28;20198;-78
2022/02/18 01:19:34;;;;;;;22.87;3.50;;;;;;;6.31;67.37;95396.66;5013982;28;20551;-78
2022/02/18 01:21:59;;;;;;;18.23;3.60;;;;;;;6.32;67.70;95394.91;5013648;28;20585;-78
2022/02/18 01:24:24;;;;;;;14.93;4.57;;;;;;;6.31;67.24;95385.53;5013977;28;20175;-78
2022/02/18 01:26:49;;;;;;;11.93;3.47;;;;;;;6.35;67.61;95377.41;5023087;28;20215;-77
2022/02/18 01:29:15;;;;;;;16.47;3.90;;;;;;;6.31;67.40;95382.97;5014423;28;20191;-78
2022/02/18 01:31:40;;;;;;;18.33;4.33;;;;;;;6.33;67.99;95388.81;4997753;28;20338;-78
2022/02/18 01:34:05;;;;;;;19.63;4.03;;;;;;;6.29;67.80;95393.41;4998166;28;20187;-78
2022/02/18 01:36:31;;;;;;;16.83;3.73;;;;;;;6.33;68.08;95384.47;5016272;28;20187;-78
2022/02/18 01:38:56;;;;;;;15.40;3.30;;;;;;;6.30;68.10;95374.41;5015438;28;20187;-78
2022/02/18 01:41:21;;;;;;;13.70;3.30;;;;;;;6.36;67.79;95379.06;5010149;28;20226;-78
2022/02/18 01:43:59;;;;;;;18.53;3.80;;;;;;;6.35;67.76;95392.88;4995379;28;20180;-78
2022/02/18 01:46:24;;;;;;;16.57;3.77;;;;;;;6.37;68.08;95396.19;5017312;28;20246;-78
2022/02/18 01:48:52;;;;;;;17.13;4.07;;;;;;;6.37;67.89;95392.78;5022459;28;20325;-78
2022/02/18 01:51:20;;;;;;;19.20;3.43;;;;;;;6.33;68.19;95405.09;5014231;28;20792;-78
2022/02/18 01:53:46;;;;;;;19.47;4.17;;;;;;;6.36;68.32;95391.97;4998368;28;20562;-78
2022/02/18 01:56:13;;;;;;;16.60;3.40;;;;;;;6.28;68.58;95386.63;5014919;28;20189;-77
2022/02/18 01:58:38;;;;;;;18.07;3.50;;;;;;;6.35;67.74;95371.44;4998778;28;20213;-78
2022/02/18 02:01:04;;;;;;;16.90;3.47;;;;;;;6.35;67.92;95377.41;5014360;28;20211;-78
2022/02/18 02:03:30;;;;;;;18.67;3.77;;;;;;;6.34;68.57;95378.34;4998535;28;20205;-78
2022/02/18 02:05:56;;;;;;;20.40;3.67;;;;;;;6.24;68.58;95369.75;5014462;28;20665;-78
2022/02/18 02:08:22;;;;;;;17.13;3.63;;;;;;;6.23;68.63;95366.34;5015496;28;20206;-78
2022/02/18 02:10:47;;;;;;;19.60;3.30;;;;;;;6.24;68.67;95380.06;4998244;28;20206;-78
2022/02/18 02:13:27;;;;;;;21.43;3.37;;;;;;;6.26;68.37;95380.75;5013487;28;20633;-78
2022/02/18 02:15:52;;;;;;;16.40;3.20;;;;;;;6.20;68.55;95374.34;4992586;28;20205;-78
2022/02/18 02:18:18;;;;;;;13.50;3.60;;;;;;;6.23;68.90;95370.69;4995696;28;20184;-78
2022/02/18 02:20:43;;;;;;;16.37;3.33;;;;;;;6.21;68.46;95363.09;5007200;28;20211;-78
2022/02/18 02:23:08;;;;;;;13.30;3.03;;;;;;;6.19;68.67;95348.69;5015863;28;20588;-78
2022/02/18 02:25:35;;;;;;;14.97;3.73;;;;;;;6.14;68.98;95348.22;4997454;28;20191;-78
2022/02/18 02:28:00;;;;;;;15.93;3.40;;;;;;;6.10;69.06;95337.38;4983885;28;20546;-78
2022/02/18 02:30:26;;;;;;;17.87;3.03;;;;;;;6.08;68.84;95333.25;5017398;28;20194;-78
2022/02/18 02:32:51;;;;;;;16.40;3.40;;;;;;;6.12;68.58;95332.09;5000678;28;20187;-78
2022/02/18 02:35:16;;;;;;;13.63;3.13;;;;;;;6.07;68.91;95341.94;5017358;28;20183;-78
2022/02/18 02:37:41;;;;;;;15.40;3.20;;;;;;;6.13;68.37;95337.09;5017630;28;20577;-78
2022/02/18 02:40:07;;;;;;;17.17;4.17;;;;;;;6.08;69.03;95328.09;5016493;28;20191;-78
2022/02/18 02:42:32;;;;;;;17.00;3.20;;;;;;;6.09;68.67;95329.72;5016580;28;20230;-78
2022/02/18 02:44:58;;;;;;;14.53;3.83;;;;;;;6.07;69.00;95323.88;5016891;28;20206;-78
2022/02/18 02:47:23;;;;;;;15.57;3.37;;;;;;;6.08;68.82;95318.59;5018508;28;20278;-78
2022/02/18 02:49:48;;;;;;;14.73;2.80;;;;;;;6.11;68.00;95307.25;5016929;28;20188;-78
2022/02/18 02:52:14;;;;;;;13.77;3.17;;;;;;;6.11;68.34;95299.50;5016882;28;20198;-78
2022/02/18 02:54:39;;;;;;;13.03;3.43;;;;;;;6.07;68.22;95306.66;5017186;28;20226;-77
2022/02/18 02:57:04;;;;;;;12.73;3.10;;;;;;;5.97;68.49;95298.88;5017523;28;20262;-78
2022/02/18 02:59:30;;;;;;;19.37;3.67;;;;;;;5.97;68.58;95300.63;5000487;28;20183;-78
2022/02/18 03:01:55;;;;;;;13.43;2.90;;;;;;;5.99;68.19;95287.63;5000486;28;20311;-77
2022/02/18 03:04:20;;;;;;;17.80;3.00;;;;;;;5.94;68.45;95286.25;5000365;28;20179;-78
2022/02/18 03:06:46;;;;;;;13.03;3.17;;;;;;;5.93;68.89;95284.63;5017253;28;20212;-78
2022/02/18 03:09:12;;;;;;;9.73;2.67;;;;;;;5.88;69.32;95280.72;5017008;28;20193;-78
2022/02/18 03:11:38;;;;;;;13.93;3.43;;;;;;;5.96;68.57;95274.03;4999407;28;20265;-78
2022/02/18 03:14:03;;;;;;;14.13;2.80;;;;;;;5.89;69.13;95272.88;5000173;28;20193;-78
2022/02/18 03:16:28;;;;;;;13.57;3.17;;;;;;;5.89;69.05;95272.06;5001087;28;20183;-78
2022/02/18 03:18:54;;;;;;;13.30;2.87;;;;;;;5.93;68.79;95271.72;4999991;28;20213;-78
2022/02/18 03:21:19;;;;;;;16.87;3.13;;;;;;;5.98;68.45;95261.03;4999384;28;20265;-78
2022/02/18 03:23:47;;;;;;;18.50;3.10;;;;;;;5.99;68.59;95254.09;5000188;28;20187;-78
2022/02/18 03:26:15;;;;;;;14.27;3.10;;;;;;;6.01;68.54;95239.31;5035421;28;20239;-78
2022/02/18 03:28:41;;;;;;;13.83;2.93;;;;;;;5.99;68.45;95233.47;5014082;28;20679;-78
2022/02/18 03:31:08;;;;;;;13.23;3.07;;;;;;;6.05;67.45;95235.56;5003830;28;20199;-78
2022/02/18 03:33:37;;;;;;;11.53;2.77;;;;;;;6.07;67.76;95234.47;5016098;28;20180;-78
2022/02/18 03:36:03;;;;;;;13.27;3.10;;;;;;;6.00;68.29;95235.13;5000681;28;20175;-78
2022/02/18 03:38:28;;;;;;;16.80;4.17;;;;;;;5.92;68.27;95234.00;5000849;28;20190;-78
2022/02/18 03:40:53;;;;;;;13.67;2.73;;;;;;;5.93;68.03;95238.22;5016805;28;20577;-78
2022/02/18 03:43:19;;;;;;;14.60;3.10;;;;;;;5.91;68.35;95254.72;4999903;28;20194;-78
2022/02/18 03:45:44;;;;;;;16.57;2.80;;;;;;;5.82;68.79;95260.59;5017326;28;20179;-77
2022/02/18 03:48:09;;;;;;;20.53;3.40;;;;;;;5.84;68.67;95244.09;5017026;28;20187;-78
2022/02/18 03:50:35;;;;;;;18.63;3.37;;;;;;;5.79;69.06;95241.06;5016344;28;20175;-80
2022/02/18 03:53:03;;;;;;;17.53;2.73;;;;;;;5.72;69.59;95233.97;5015223;28;20722;-77
2022/02/18 03:55:28;;;;;;;16.17;3.03;;;;;;;5.67;69.78;95227.44;5016176;28;20306;-78
2022/02/18 03:57:53;;;;;;;13.80;2.73;;;;;;;5.66;69.89;95225.00;5000144;28;20210;-78
2022/02/18 04:00:19;;;;;;;14.17;2.60;;;;;;;5.66;70.17;95230.97;5000450;28;20184;-78
2022/02/18 04:02:44;;;;;;;13.80;3.03;;;;;;;5.58;70.54;95222.22;4998741;28;20597;-78
2022/02/18 04:05:09;;;;;;;18.70;2.80;;;;;;;5.56;70.48;95226.66;5015751;28;20172;-79
2022/02/18 04:07:35;;;;;;;14.57;2.80;;;;;;;5.57;70.54;95231.72;5017912;28;20187;-79
2022/02/18 04:10:00;;;;;;;13.73;2.47;;;;;;;5.64;70.19;95230.25;5017487;28;20198;-79
2022/02/18 04:12:26;;;;;;;13.47;2.40;;;;;;;5.56;70.98;95230.06;5018290;28;20210;-79
2022/02/18 04:14:51;;;;;;;11.80;2.80;;;;;;;5.55;71.23;95222.47;5001335;28;20191;-79
2022/02/18 04:17:16;;;;;;;14.23;2.63;;;;;;;5.54;71.26;95210.53;5000864;28;20191;-78
2022/02/18 04:19:42;;;;;;;14.60;3.17;;;;;;;5.56;71.08;95206.88;5001302;28;20241;-78
2022/02/18 04:22:07;;;;;;;11.23;2.97;;;;;;;5.54;71.23;95192.50;5016959;28;20211;-77
2022/02/18 04:24:33;;;;;;;12.73;2.83;;;;;;;5.57;70.85;95182.78;5001491;28;20183;-78
2022/02/18 04:26:58;;;;;;;12.40;2.70;;;;;;;5.56;70.62;95183.69;5001190;28;20183;-78
2022/02/18 04:29:23;;;;;;;17.67;3.20;;;;;;;5.57;70.76;95187.13;5000755;28;20240;-78
2022/02/18 04:31:49;;;;;;;11.80;2.93;;;;;;;5.64;70.67;95191.63;5016916;28;20742;-79
2022/02/18 04:34:14;;;;;;;12.30;3.07;;;;;;;5.55;71.00;95186.41;5018276;28;20179;-79
2022/02/18 04:36:39;;;;;;;14.67;2.77;;;;;;;5.52;71.54;95178.94;5017524;28;20203;-79
2022/02/18 04:39:05;;;;;;;11.47;2.53;;;;;;;5.48;71.70;95174.97;5018071;28;20218;-78
2022/02/18 04:41:31;;;;;;;13.40;2.47;;;;;;;5.38;72.34;95183.44;5017239;28;20249;-78
2022/02/18 04:43:56;;;;;;;13.13;2.77;;;;;;;5.36;72.52;95185.31;5001524;28;20179;-78
2022/02/18 04:46:22;;;;;;;16.93;3.33;;;;;;;5.33;72.94;95183.00;5016515;28;20187;-78
2022/02/18 04:48:47;;;;;;;10.60;2.93;;;;;;;5.35;73.02;95185.47;5001432;28;20241;-78
2022/02/18 04:51:12;;;;;;;10.77;2.50;;;;;;;5.30;73.44;95178.13;5017250;28;20195;-78
2022/02/18 04:53:38;;;;;;;14.40;3.37;;;;;;;5.30;73.34;95167.81;5018098;28;20598;-76
2022/02/18 04:56:04;;;;;;;9.93;2.67;;;;;;;5.37;73.50;95171.50;5012805;28;20249;-78
2022/02/18 04:58:30;;;;;;;14.47;3.50;;;;;;;5.33;73.43;95169.31;5014557;28;20175;-78
2022/02/18 05:00:56;;;;;;;12.57;2.67;;;;;;;5.35;73.64;95170.00;5016964;28;20237;-78
2022/02/18 05:03:21;;;;;;;11.27;2.93;;;;;;;5.35;73.58;95149.41;4999601;28;20465;-79
2022/02/18 05:05:46;;;;;;;13.80;2.70;;;;;;;5.35;73.59;95149.41;5016730;28;20600;-78
2022/02/18 05:08:12;;;;;;;12.13;2.90;;;;;;;5.42;73.27;95134.28;5015645;28;20187;-77
2022/02/18 05:10:37;;;;;;;12.13;3.17;;;;;;;5.41;72.88;95130.91;5016568;28;20176;-78
2022/02/18 05:13:02;;;;;;;9.57;2.47;;;;;;;5.33;73.91;95128.13;5015202;28;20193;-78
2022/02/18 05:15:28;;;;;;;13.57;3.13;;;;;;;5.36;73.36;95128.69;5016664;28;20185;-79
2022/02/18 05:17:53;;;;;;;9.70;2.73;;;;;;;5.42;73.63;95118.84;5003665;28;20190;-79
2022/02/18 05:20:18;;;;;;;12.70;2.63;;;;;;;5.39;73.89;95099.31;5035245;28;20202;-78
2022/02/18 05:22:44;;;;;;;12.33;2.73;;;;;;;5.35;73.91;95098.72;5020305;28;20206;-79
2022/02/18 05:25:10;;;;;;;17.43;2.80;;;;;;;5.43;73.86;95102.44;5016320;28;20176;-78
2022/02/18 05:27:35;;;;;;;13.03;2.87;;;;;;;5.46;74.00;95089.28;4996554;28;20517;-79
2022/02/18 05:30:01;;;;;;;11.43;2.33;;;;;;;5.40;74.09;95077.75;4997070;28;20180;-79
2022/02/18 05:32:26;;;;;;;15.07;2.90;;;;;;;5.35;74.39;95072.97;4997434;28;20199;-78
2022/02/18 05:34:51;;;;;;;14.27;2.50;;;;;;;5.37;74.50;95073.66;5017329;28;20864;-78
2022/02/18 05:37:17;;;;;;;10.23;2.30;;;;;;;5.42;74.46;95070.72;4998210;28;20194;-79
2022/02/18 05:39:42;;;;;;;11.00;2.93;;;;;;;5.35;75.04;95054.13;4999561;28;20930;-79
2022/02/18 05:42:07;;;;;;;11.83;3.53;;;;;;;5.39;74.89;95056.34;5014655;28;20211;-77
2022/02/18 05:44:34;;;;;;;11.80;3.50;;;;;;;5.40;74.75;95049.44;5012501;28;20180;-77
2022/02/18 05:47:00;;;;;;;17.53;3.97;;;;;;;5.43;75.22;95043.22;5012990;28;20213;-78
2022/02/18 05:49:26;;;;;;;13.40;2.67;;;;;;;5.44;74.64;95037.91;5012350;28;20205;-78
2022/02/18 05:51:51;;;;;;;9.77;2.57;;;;;;;5.46;74.86;95037.78;4993404;28;20680;-76
2022/02/18 05:54:16;;;;;;;10.60;2.97;;;;;;;5.46;75.17;95035.22;4993970;28;20277;-78
2022/02/18 05:56:45;;;;;;;13.67;2.77;;;;;;;5.46;75.23;95027.50;5014869;28;20206;-79
2022/02/18 05:59:10;;;;;;;14.17;3.00;;;;;;;5.49;75.47;95027.25;5019666;28;20179;-78
2022/02/18 06:01:38;;;;;;;16.53;3.20;;;;;;;5.51;75.10;95026.16;5017514;28;20215;-78
2022/02/18 06:04:04;;;;;;;10.60;2.60;;;;;;;5.48;75.26;95013.56;5002079;28;20556;-79
2022/02/18 06:06:29;;;;;;;9.00;2.63;;;;;;;5.46;75.74;95023.16;5000698;28;20274;-77
2022/02/18 06:08:54;;;;;;;9.63;2.50;;;;;;;5.47;76.09;95016.25;5008612;28;20194;-77
2022/02/18 06:11:19;;;;;;;12.63;3.17;;;;;;;5.53;75.98;95013.16;5015614;28;20206;-78
2022/02/18 06:13:45;;;;;;;13.07;3.47;;;;;;;5.48;75.82;95015.28;5024030;28;20198;-76
2022/02/18 06:16:10;;;;;;;8.60;2.40;;;;;;;5.47;76.82;95018.81;5035109;28;20186;-76
2022/02/18 06:18:35;;;;;;;14.03;3.00;;;;;;;5.52;76.15;95011.53;5000186;28;20198;-77
2022/02/18 06:21:00;;;;;;;13.03;2.77;;;;;;;5.55;76.30;95006.09;5025112;28;20206;-77
2022/02/18 06:23:26;;;;;;;10.60;2.60;;;;;;;5.59;76.25;95002.34;5018072;28;20175;-79
2022/02/18 06:25:51;;;;;;;12.50;3.57;;;;;;;5.59;76.27;94997.19;5018126;28;20749;-79
2022/02/18 06:28:16;;;;;;;8.60;2.80;;;;;;;5.63;76.66;94988.25;5018656;28;20244;-79
2022/02/18 06:30:42;;;;;;;14.03;3.23;;;;;;;5.66;76.61;94982.84;5024882;28;20225;-77
2022/02/18 06:33:08;;;;;;;16.67;3.20;;;;;;;5.67;76.93;94979.31;5017055;28;20175;-78
2022/02/18 06:35:34;;;;;;;14.10;3.10;;;;;;;5.68;76.64;94978.38;4996902;28;20198;-78
2022/02/18 06:37:59;;;;;;;16.27;3.10;;;;;;;5.69;76.88;94972.28;5016888;28;20280;-78
2022/02/18 06:40:25;;;;;;;17.67;2.87;;;;;;;5.73;77.08;94968.47;5016011;28;20179;-77
2022/02/18 06:42:50;;;;;;;14.27;2.97;;;;;;;5.77;77.37;94969.84;5015794;28;20206;-77
2022/02/18 06:45:18;;;;;;;12.63;3.73;;;;;;;5.76;77.37;94960.50;5016777;28;20189;-79
2022/02/18 06:47:47;;;;;;;11.60;3.20;;;;;;;5.83;77.44;94963.34;5017845;28;20268;-79
2022/02/18 06:50:13;;;;;;;11.73;2.93;;;;;;;5.82;77.87;94967.69;5001296;28;20206;-77
2022/02/18 06:52:39;;;;;;;13.83;2.73;;;;;;;5.83;77.79;94955.59;4984416;28;20257;-77
2022/02/18 06:55:06;;;;;;;12.87;3.13;;;;;;;5.81;78.86;94953.16;4990164;28;20557;-79
2022/02/18 06:57:31;;;;;;;12.90;2.67;;;;;;;5.90;79.39;94954.97;5000729;28;20185;-79
2022/02/18 06:59:56;;;;;;;13.73;3.13;;;;;;;5.98;79.91;94951.72;5016665;28;20183;-80
2022/02/18 07:02:22;;;;;;;12.43;2.90;;;;;;;6.07;79.65;94950.94;5016776;28;20211;-79
2022/02/18 07:04:47;;;;;;;10.40;2.87;;;;;;;6.12;79.27;94937.66;5015509;28;20655;-78
2022/02/18 07:07:12;;;;;;;10.53;2.60;;;;;;;6.17;79.46;94940.63;5015512;28;20175;-78
2022/02/18 07:09:37;;;;;;;14.10;3.23;;;;;;;6.16;80.48;94933.84;5014398;28;20221;-79
2022/02/18 07:12:03;;;;;;;17.40;3.30;;;;;;;6.22;80.99;94928.97;5014234;28;20214;-78
2022/02/18 07:14:28;;;;;;;12.90;2.47;;;;;;;6.24;82.56;94932.22;4999324;28;20186;-80
2022/02/18 07:16:54;;;;;;;9.27;2.63;;;;;;;6.30;83.72;94928.28;4991941;28;20180;-80
2022/02/18 07:19:19;;;;;;;12.17;2.97;;;;;;;6.37;86.33;94920.81;4997382;28;20186;-82
2022/02/18 07:21:45;;;;;;;13.30;2.40;;;;;;;6.44;86.71;94914.94;4984406;28;20215;-78
2022/02/18 07:24:11;;;;;;;12.73;2.40;;;;;;;6.49;88.87;94917.13;5016381;28;20175;-80
2022/02/18 07:26:37;;;;;;;7.43;2.20;;;;;;;6.54;88.71;94909.81;5016248;28;20194;-78
2022/02/18 07:29:02;;;;;;;6.97;2.23;;;;;;;6.59;89.44;94905.03;5016246;28;20191;-79
2022/02/18 07:31:28;;;;;;;11.10;2.50;;;;;;;6.72;89.31;94905.56;4997514;28;20394;-79
2022/02/18 07:33:53;;;;;;;10.60;2.20;;;;;;;6.79;90.54;94910.94;5017534;28;20194;-78
2022/02/18 07:36:18;;;;;;;7.33;2.03;;;;;;;6.87;91.05;94908.47;5016909;28;20218;-80
2022/02/18 07:38:44;;;;;;;7.23;1.80;;;;;;;6.86;92.27;94903.47;5016303;28;20249;-79
2022/02/18 07:41:09;;;;;;;6.77;1.67;;;;;;;6.91;92.64;94902.09;4995623;28;20230;-80
2022/02/18 07:43:34;;;;;;;7.63;1.67;;;;;;;7.01;92.57;94895.13;4983451;28;20649;-80
2022/02/18 07:46:01;;;;;;;4.87;1.50;;;;;;;6.99;93.74;94883.34;5014462;28;20191;-79
2022/02/18 07:48:26;;;;;;;5.70;2.23;;;;;;;7.03;93.68;94889.81;5015154;28;20171;-78
2022/02/18 07:50:52;;;;;;;4.27;2.13;;;;;;;7.04;93.84;94879.34;5018362;28;20196;-79
2022/02/18 07:53:17;;;;;;;8.73;2.10;;;;;;;7.15;93.40;94870.59;5021729;28;20183;-79
2022/02/18 07:55:42;;;;;;;6.67;1.70;;;;;;;7.30;93.17;94865.78;5017937;28;20582;-79
2022/02/18 07:58:08;;;;;;;6.97;1.33;;;;;;;7.33;93.49;94868.06;5017330;28;20206;-79
2022/02/18 08:00:34;;;;;;;4.80;1.63;;;;;;;7.41;93.13;94860.41;5016445;28;20595;-78
2022/02/18 08:02:59;;;;;;;5.53;1.37;;;;;;;7.40;93.49;94863.94;5015098;28;20183;-78
2022/02/18 08:05:25;;;;;;;3.90;1.30;;;;;;;7.53;92.82;94856.69;4998470;28;20214;-79
2022/02/18 08:07:50;;;;;;;5.10;1.67;;;;;;;7.58;92.72;94845.91;5015621;28;20274;-80
2022/02/18 08:10:15;;;;;;;8.17;1.73;;;;;;;7.73;91.67;94844.44;4999452;28;20178;-78
2022/02/18 08:12:48;;;;;;;6.87;1.90;;;;;;;7.79;91.54;94837.88;4999078;28;20195;-80
2022/02/18 08:15:13;;;;;;;7.03;2.73;;;;;;;7.86;91.20;94838.88;5029255;28;20280;-79
2022/02/18 08:17:39;;;;;;;6.00;1.80;;;;;;;7.98;90.59;94832.56;4999620;28;20221;-80
2022/02/18 08:20:05;;;;;;;7.57;2.40;;;;;;;8.12;90.28;94839.75;5015309;28;20530;-80
2022/02/18 08:22:31;;;;;;;3.47;1.40;;;;;;;7.99;91.13;94834.16;5013536;28;20227;-80
2022/02/18 08:24:56;;;;;;;4.27;2.53;;;;;;;8.08;90.39;94838.44;4997442;28;20180;-81
2022/02/18 08:27:21;;;;;;;6.10;3.17;;;;;;;8.04;90.75;94821.63;5014573;28;20664;-80
2022/02/18 08:29:47;;;;;;;7.10;2.80;;;;;;;8.09;90.57;94819.38;5014706;28;20211;-80
2022/02/18 08:32:12;;;;;;;5.33;2.23;;;;;;;8.01;91.09;94811.56;4997090;28;20289;-79
2022/02/18 08:34:37;;;;;;;7.07;2.63;;;;;;;8.04;91.21;94811.28;4995613;28;20188;-80
2022/02/18 08:37:03;;;;;;;8.03;3.33;;;;;;;8.12;90.69;94808.72;5011865;28;20199;-79
2022/02/18 08:39:28;;;;;;;6.80;3.60;;;;;;;8.27;90.28;94813.38;4999430;28;20194;-80
2022/02/18 08:41:54;;;;;;;8.03;3.87;;;;;;;8.34;89.88;94809.22;4999915;28;20283;-79
2022/02/18 08:44:19;;;;;;;7.70;4.13;;;;;;;8.38;89.89;94803.59;5006865;28;20187;-79
2022/02/18 08:46:45;;;;;;;5.90;3.17;;;;;;;8.50;89.44;94802.41;5002912;28;20183;-80
2022/02/18 08:49:10;;;;;;;4.33;1.50;;;;;;;8.58;88.91;94804.22;4994705;28;20188;-80
2022/02/18 08:51:37;;;;;;;6.73;4.07;;;;;;;8.66;88.57;94806.06;4982048;28;20282;-79
2022/02/18 08:54:03;;;;;;;5.07;3.40;;;;;;;8.77;88.09;94792.84;4999122;28;20705;-80
2022/02/18 08:56:31;;;;;;;8.33;5.07;;;;;;;8.89;87.27;94796.75;5016292;28;20190;-80
2022/02/18 08:58:56;;;;;;;5.07;1.47;;;;;;;8.86;87.32;94791.91;5015320;28;20175;-80
2022/02/18 09:01:24;;;;;;;7.43;3.07;;;;;;;8.91;87.17;94779.28;5013814;28;20237;-79
2022/02/18 09:03:50;;;;;;;3.83;2.00;;;;;;;9.05;86.72;94772.72;4998594;28;20225;-79
2022/02/18 09:06:15;;;;;;;7.23;3.17;;;;;;;9.07;86.84;94776.75;5015165;28;20183;-79
2022/02/18 09:08:40;;;;;;;6.73;2.30;;;;;;;9.18;86.10;94770.47;4998054;28;20668;-80
2022/02/18 09:11:06;;;;;;;6.23;2.77;;;;;;;9.36;84.87;94762.56;5014435;28;20195;-79
2022/02/18 09:13:31;;;;;;;3.00;1.30;;;;;;;9.58;84.50;94758.56;5014806;28;20187;-80
2022/02/18 09:15:56;;;;;;;4.17;1.53;;;;;;;9.79;83.66;94750.31;4995577;28;20616;-77
2022/02/18 09:18:22;;;;;;;5.17;1.10;;;;;;;9.98;82.29;94755.16;5013048;28;20187;-79
2022/02/18 09:20:48;;;;;;;4.97;1.70;;;;;;;10.05;81.42;94752.75;5013490;28;20746;-77
2022/02/18 09:23:14;;;;;;;4.73;1.33;;;;;;;10.14;80.52;94749.97;5013262;28;20198;-77
2022/02/18 09:25:40;;;;;;;2.00;0.97;;;;;;;10.40;80.33;94756.78;4995357;28;20728;-78
2022/02/18 09:28:06;;;;;;;6.93;3.17;;;;;;;10.47;79.61;94747.34;4995362;28;20195;-79
2022/02/18 09:30:31;;;;;;;4.33;2.10;;;;;;;10.46;79.62;94749.16;5005380;28;20265;-78
2022/02/18 09:32:58;;;;;;;3.80;1.67;;;;;;;10.59;79.45;94755.59;4998020;28;20550;-78
2022/02/18 09:35:26;;;;;;;4.70;1.50;;;;;;;10.41;79.21;94753.19;4998157;28;20226;-79
2022/02/18 09:37:53;;;;;;;3.73;1.07;;;;;;;10.70;77.85;94763.84;5014557;28;20183;-79
2022/02/18 09:40:19;;;;;;;4.70;1.70;;;;;;;10.84;75.71;94754.53;5014603;28;20175;-79
2022/02/18 09:42:45;;;;;;;7.70;1.20;;;;;;;11.01;75.11;94757.88;4998303;28;20218;-79
2022/02/18 09:45:11;;;;;;;4.03;1.20;;;;;;;10.88;74.77;94762.81;4993985;28;20207;-79
2022/02/18 09:47:37;;;;;;;6.10;2.70;;;;;;;10.94;73.78;94756.94;4995044;28;20284;-79
2022/02/18 09:50:03;;;;;;;3.13;1.17;;;;;;;10.88;74.25;94739.44;4998981;28;20199;-78
2022/02/18 09:52:28;;;;;;;6.47;2.00;;;;;;;10.97;72.86;94738.44;5014128;28;20214;-78
2022/02/18 09:54:53;;;;;;;5.10;1.63;;;;;;;11.00;73.25;94733.69;4997090;28;20223;-79
2022/02/18 09:57:20;;;;;;;3.83;2.10;;;;;;;11.00;72.97;94728.50;5014545;28;20208;-79
2022/02/18 09:59:45;;;;;;;1.10;0.90;;;;;;;11.01;73.22;94735.31;5015353;28;20600;-79
2022/02/18 10:02:12;;;;;;;9.40;5.23;;;;;;;10.99;73.52;94723.47;5012581;28;20265;-78
2022/02/18 10:04:37;;;;;;;2.40;0.87;;;;;;;10.73;73.83;94736.72;4997721;28;20179;-78
2022/02/18 10:07:03;;;;;;;4.33;0.60;;;;;;;10.80;72.65;94726.50;4999205;28;20237;-79
2022/02/18 10:09:43;;;;;;;1.97;0.70;;;;;;;10.89;72.55;94730.66;4999480;28;20688;-78
2022/02/18 10:12:10;;;;;;;3.53;0.90;;;;;;;10.76;73.47;94719.00;5012053;28;20191;-78
2022/02/18 10:14:56;;;;;;;2.07;0.70;;;;;;;10.76;73.03;94724.22;5014642;28;20191;-77
2022/02/18 10:17:23;;;;;;;3.20;1.13;;;;;;;10.79;72.98;94715.28;5013150;28;20187;-79
2022/02/18 10:19:50;;;;;;;5.43;0.80;;;;;;;10.74;73.05;94705.41;5015392;28;20266;-80
2022/02/18 10:22:22;;;;;;;3.87;1.13;;;;;;;10.78;72.68;94716.28;4994815;28;20262;-80
2022/02/18 10:24:48;;;;;;;2.73;0.90;;;;;;;10.86;71.92;94703.22;4995788;28;20180;-80
2022/02/18 10:27:15;;;;;;;4.40;0.90;;;;;;;10.79;71.28;94699.72;5015091;28;20194;-79
2022/02/18 10:29:40;;;;;;;3.03;0.63;;;;;;;10.86;70.89;94689.44;5016938;28;20254;-78
2022/02/18 10:32:15;;;;;;;2.23;1.13;;;;;;;10.84;71.27;94671.41;4998239;28;20238;-78
2022/02/18 10:34:58;;;;;;;4.40;1.50;;;;;;;10.96;70.13;94680.47;5014695;28;20656;-79
2022/02/18 10:37:26;;;;;;;1.10;0.73;;;;;;;10.94;70.70;94666.81;5014873;28;20265;-79
2022/02/18 10:40:05;;;;;;;1.90;0.80;;;;;;;10.97;70.04;94665.69;5016170;28;20648;-78
2022/02/18 10:42:30;;;;;;;2.17;1.00;;;;;;;11.15;69.52;94675.81;5011954;28;20253;-78
2022/02/18 10:45:08;;;;;;;2.57;0.80;;;;;;;11.12;69.18;94663.94;5001062;28;20191;-77
2022/02/18 10:47:33;;;;;;;1.53;1.10;;;;;;;11.20;69.68;94653.50;5002021;28;20194;-78
2022/02/18 10:49:59;;;;;;;5.40;2.87;;;;;;;11.06;69.14;94660.28;5000801;28;20560;-78
2022/02/18 10:52:25;;;;;;;4.13;1.10;;;;;;;11.20;69.16;94665.69;4992702;28;20210;-78
2022/02/18 10:54:50;;;;;;;5.60;0.80;;;;;;;11.11;68.12;94641.56;5001972;28;20198;-78
2022/02/18 10:57:23;;;;;;;5.80;1.60;;;;;;;11.08;68.61;94636.72;5017268;28;20187;-79
2022/02/18 10:59:49;;;;;;;5.23;1.67;;;;;;;11.05;68.72;94642.25;5000307;28;20286;-79
2022/02/18 11:02:36;;;;;;;3.43;1.13;;;;;;;11.12;68.36;94639.75;4999099;28;20215;-79
2022/02/18 11:05:28;;;;;;;2.53;1.10;;;;;;;11.18;67.83;94628.69;5016742;28;20193;-78
2022/02/18 11:07:53;;;;;;;1.93;0.90;;;;;;;11.13;66.79;94618.81;5016455;28;20195;-77
2022/02/18 11:10:31;;;;;;;2.90;0.70;;;;;;;11.24;66.73;94625.41;4999756;28;20191;-79
2022/02/18 11:12:57;;;;;;;1.67;0.90;;;;;;;11.26;67.28;94633.81;4997044;28;20188;-78
2022/02/18 11:15:23;;;;;;;2.33;0.60;;;;;;;11.31;66.91;94610.72;4997758;28;20172;-77
2022/02/18 11:17:49;;;;;;;2.20;0.70;;;;;;;11.49;66.53;94598.22;5001717;28;20190;-78
2022/02/18 11:20:15;;;;;;;1.93;0.70;;;;;;;11.63;66.67;94607.84;4996524;28;20654;-78
2022/02/18 11:22:42;;;;;;;3.03;0.60;;;;;;;11.68;64.98;94589.13;5004262;28;20222;-79
2022/02/18 11:25:07;;;;;;;3.90;1.73;;;;;;;11.75;64.39;94595.22;5015697;28;20200;-78
2022/02/18 11:27:35;;;;;;;2.73;0.80;;;;;;;11.80;64.13;94589.50;5012174;28;20627;-78
2022/02/18 11:30:00;;;;;;;4.07;0.83;;;;;;;11.93;63.90;94589.72;4995605;28;20191;-78